sensor_id;sensor_type;location;lat;lon;timestamp;P1;durP1;ratioP1;P2;durP2;ratioP2
46721;SDS011;32455;43.430;23.136;2023-02-24T00:00:23;17.73;;;10.90;;
46721;SDS011;32455;43.430;23.136;2023-02-24T00:03:16;17.42;;;9.98;;
46721;SDS011;32455;43.430;23.136;2023-02-24T00:06:04;17.95;;;10.73;;
46721;SDS011;32455;43.430;23.136;2023-02-24T00:08:55;17.05;;;10.75;;
46721;SDS011;32455;43.430;23.136;2023-02-24T00:11:41;18.88;;;10.30;;
46721;SDS011;32455;43.430;23.136;2023-02-24T00:14:30;18.88;;;10.63;;
46721;SDS011;32455;43.430;23.136;2023-02-24T00:17:17;22.00;;;10.65;;
46721;SDS011;32455;43.430;23.136;2023-02-24T00:20:02;15.23;;;10.55;;
46721;SDS011;32455;43.430;23.136;2023-02-24T00:22:50;17.95;;;10.35;;
46721;SDS011;32455;43.430;23.136;2023-02-24T00:25:36;15.20;;;10.80;;
46721;SDS011;32455;43.430;23.136;2023-02-24T00:28:21;14.95;;;10.95;;
46721;SDS011;32455;43.430;23.136;2023-02-24T00:31:07;15.52;;;9.60;;
46721;SDS011;32455;43.430;23.136;2023-02-24T00:33:54;18.13;;;11.27;;
46721;SDS011;32455;43.430;23.136;2023-02-24T00:36:41;16.95;;;10.40;;
46721;SDS011;32455;43.430;23.136;2023-02-24T00:39:27;17.08;;;10.05;;
46721;SDS011;32455;43.430;23.136;2023-02-24T00:42:17;13.13;;;9.50;;
46721;SDS011;32455;43.430;23.136;2023-02-24T00:45:03;16.38;;;10.95;;
46721;SDS011;32455;43.430;23.136;2023-02-24T00:47:53;17.80;;;10.93;;
46721;SDS011;32455;43.430;23.136;2023-02-24T00:50:41;15.35;;;10.52;;
46721;SDS011;32455;43.430;23.136;2023-02-24T00:53:27;18.00;;;11.50;;
46721;SDS011;32455;43.430;23.136;2023-02-24T00:56:13;24.15;;;12.00;;
46721;SDS011;32455;43.430;23.136;2023-02-24T00:59:01;22.50;;;12.02;;
46721;SDS011;32455;43.430;23.136;2023-02-24T01:01:47;17.02;;;11.20;;
46721;SDS011;32455;43.430;23.136;2023-02-24T01:04:34;21.50;;;11.55;;
46721;SDS011;32455;43.430;23.136;2023-02-24T01:07:21;16.70;;;11.15;;
46721;SDS011;32455;43.430;23.136;2023-02-24T01:10:06;19.65;;;12.45;;
46721;SDS011;32455;43.430;23.136;2023-02-24T01:12:51;16.27;;;11.43;;
46721;SDS011;32455;43.430;23.136;2023-02-24T01:15:37;17.40;;;11.60;;
46721;SDS011;32455;43.430;23.136;2023-02-24T01:18:23;15.48;;;10.75;;
46721;SDS011;32455;43.430;23.136;2023-02-24T01:21:08;14.23;;;10.48;;
46721;SDS011;32455;43.430;23.136;2023-02-24T01:23:56;15.18;;;10.05;;
46721;SDS011;32455;43.430;23.136;2023-02-24T01:26:42;18.38;;;9.85;;
46721;SDS011;32455;43.430;23.136;2023-02-24T01:29:27;15.25;;;10.05;;
46721;SDS011;32455;43.430;23.136;2023-02-24T01:32:15;15.18;;;9.45;;
46721;SDS011;32455;43.430;23.136;2023-02-24T01:35:04;15.60;;;10.15;;
46721;SDS011;32455;43.430;23.136;2023-02-24T01:37:50;14.73;;;10.55;;
46721;SDS011;32455;43.430;23.136;2023-02-24T01:40:35;16.70;;;10.43;;
46721;SDS011;32455;43.430;23.136;2023-02-24T01:43:21;17.33;;;10.45;;
46721;SDS011;32455;43.430;23.136;2023-02-24T01:46:06;15.70;;;10.10;;
46721;SDS011;32455;43.430;23.136;2023-02-24T01:48:59;17.35;;;11.20;;
46721;SDS011;32455;43.430;23.136;2023-02-24T01:51:59;21.20;;;11.77;;
46721;SDS011;32455;43.430;23.136;2023-02-24T01:55:13;21.27;;;11.57;;
46721;SDS011;32455;43.430;23.136;2023-02-24T01:58:05;24.83;;;12.40;;
46721;SDS011;32455;43.430;23.136;2023-02-24T02:00:57;19.45;;;12.07;;
46721;SDS011;32455;43.430;23.136;2023-02-24T02:03:43;32.15;;;11.98;;
46721;SDS011;32455;43.430;23.136;2023-02-24T02:06:29;28.83;;;12.73;;
46721;SDS011;32455;43.430;23.136;2023-02-24T02:09:15;28.63;;;12.82;;
46721;SDS011;32455;43.430;23.136;2023-02-24T02:12:01;25.30;;;13.05;;
46721;SDS011;32455;43.430;23.136;2023-02-24T02:14:50;27.85;;;12.80;;
46721;SDS011;32455;43.430;23.136;2023-02-24T02:17:48;30.50;;;13.25;;
46721;SDS011;32455;43.430;23.136;2023-02-24T02:21:13;26.05;;;13.38;;
46721;SDS011;32455;43.430;23.136;2023-02-24T02:24:10;29.73;;;12.82;;
46721;SDS011;32455;43.430;23.136;2023-02-24T02:33:28;34.33;;;14.73;;
46721;SDS011;32455;43.430;23.136;2023-02-24T02:36:30;33.00;;;14.43;;
46721;SDS011;32455;43.430;23.136;2023-02-24T02:42:39;35.58;;;15.23;;
46721;SDS011;32455;43.430;23.136;2023-02-24T02:45:34;34.58;;;15.18;;
46721;SDS011;32455;43.430;23.136;2023-02-24T02:48:38;37.35;;;14.63;;
46721;SDS011;32455;43.430;23.136;2023-02-24T02:51:39;33.10;;;14.32;;
46721;SDS011;32455;43.430;23.136;2023-02-24T02:54:52;33.55;;;14.73;;
46721;SDS011;32455;43.430;23.136;2023-02-24T02:57:43;34.42;;;14.18;;
46721;SDS011;32455;43.430;23.136;2023-02-24T03:00:33;34.13;;;14.32;;
46721;SDS011;32455;43.430;23.136;2023-02-24T03:06:16;32.53;;;15.02;;
46721;SDS011;32455;43.430;23.136;2023-02-24T03:12:05;43.30;;;15.77;;
46721;SDS011;32455;43.430;23.136;2023-02-24T03:14:55;30.70;;;14.93;;
46721;SDS011;32455;43.430;23.136;2023-02-24T03:17:44;27.80;;;14.85;;
46721;SDS011;32455;43.430;23.136;2023-02-24T03:20:35;29.00;;;14.88;;
46721;SDS011;32455;43.430;23.136;2023-02-24T03:23:24;35.45;;;15.05;;
46721;SDS011;32455;43.430;23.136;2023-02-24T03:26:24;38.60;;;14.10;;
46721;SDS011;32455;43.430;23.136;2023-02-24T03:29:43;33.55;;;15.68;;
46721;SDS011;32455;43.430;23.136;2023-02-24T03:33:08;41.47;;;17.65;;
46721;SDS011;32455;43.430;23.136;2023-02-24T03:35:55;50.40;;;17.27;;
46721;SDS011;32455;43.430;23.136;2023-02-24T03:38:45;42.42;;;16.20;;
46721;SDS011;32455;43.430;23.136;2023-02-24T03:41:35;42.50;;;18.50;;
46721;SDS011;32455;43.430;23.136;2023-02-24T03:44:34;49.92;;;18.88;;
46721;SDS011;32455;43.430;23.136;2023-02-24T03:47:19;55.35;;;18.75;;
46721;SDS011;32455;43.430;23.136;2023-02-24T03:50:19;46.28;;;17.70;;
46721;SDS011;32455;43.430;23.136;2023-02-24T03:56:27;53.70;;;19.83;;
46721;SDS011;32455;43.430;23.136;2023-02-24T04:02:25;47.42;;;20.45;;
46721;SDS011;32455;43.430;23.136;2023-02-24T04:05:19;50.22;;;21.35;;
46721;SDS011;32455;43.430;23.136;2023-02-24T04:08:08;49.90;;;19.80;;
46721;SDS011;32455;43.430;23.136;2023-02-24T04:10:57;53.55;;;21.38;;
46721;SDS011;32455;43.430;23.136;2023-02-24T04:13:50;50.20;;;23.13;;
46721;SDS011;32455;43.430;23.136;2023-02-24T04:17:47;56.45;;;24.23;;
46721;SDS011;32455;43.430;23.136;2023-02-24T04:20:04;53.65;;;23.08;;
46721;SDS011;32455;43.430;23.136;2023-02-24T04:23:07;59.70;;;23.17;;
46721;SDS011;32455;43.430;23.136;2023-02-24T04:25:57;56.17;;;21.10;;
46721;SDS011;32455;43.430;23.136;2023-02-24T04:28:45;64.28;;;21.70;;
46721;SDS011;32455;43.430;23.136;2023-02-24T04:31:33;52.53;;;21.73;;
46721;SDS011;32455;43.430;23.136;2023-02-24T04:34:22;61.30;;;21.65;;
46721;SDS011;32455;43.430;23.136;2023-02-24T04:37:08;53.50;;;23.05;;
46721;SDS011;32455;43.430;23.136;2023-02-24T04:39:53;56.22;;;21.77;;
46721;SDS011;32455;43.430;23.136;2023-02-24T04:42:39;50.38;;;22.23;;
46721;SDS011;32455;43.430;23.136;2023-02-24T04:45:30;50.38;;;22.50;;
46721;SDS011;32455;43.430;23.136;2023-02-24T04:48:16;62.17;;;23.42;;
46721;SDS011;32455;43.430;23.136;2023-02-24T04:51:04;64.18;;;22.70;;
46721;SDS011;32455;43.430;23.136;2023-02-24T04:53:50;58.50;;;22.88;;
46721;SDS011;32455;43.430;23.136;2023-02-24T04:56:39;57.83;;;21.58;;
46721;SDS011;32455;43.430;23.136;2023-02-24T04:59:24;57.03;;;23.15;;
46721;SDS011;32455;43.430;23.136;2023-02-24T05:02:11;52.33;;;20.88;;
46721;SDS011;32455;43.430;23.136;2023-02-24T05:04:56;40.20;;;19.33;;
46721;SDS011;32455;43.430;23.136;2023-02-24T05:07:43;48.63;;;19.60;;
46721;SDS011;32455;43.430;23.136;2023-02-24T05:10:35;48.40;;;19.67;;
46721;SDS011;32455;43.430;23.136;2023-02-24T05:13:24;51.27;;;20.90;;
46721;SDS011;32455;43.430;23.136;2023-02-24T05:16:12;47.85;;;19.13;;
46721;SDS011;32455;43.430;23.136;2023-02-24T05:18:59;54.72;;;19.52;;
46721;SDS011;32455;43.430;23.136;2023-02-24T05:22:04;52.40;;;20.10;;
46721;SDS011;32455;43.430;23.136;2023-02-24T05:24:54;39.35;;;18.73;;
46721;SDS011;32455;43.430;23.136;2023-02-24T05:27:41;53.35;;;19.95;;
46721;SDS011;32455;43.430;23.136;2023-02-24T05:30:26;53.92;;;22.20;;
46721;SDS011;32455;43.430;23.136;2023-02-24T05:33:12;52.30;;;20.40;;
46721;SDS011;32455;43.430;23.136;2023-02-24T05:36:00;57.38;;;21.42;;
46721;SDS011;32455;43.430;23.136;2023-02-24T05:38:48;55.95;;;23.33;;
46721;SDS011;32455;43.430;23.136;2023-02-24T05:41:39;62.38;;;22.40;;
46721;SDS011;32455;43.430;23.136;2023-02-24T05:44:27;48.17;;;23.15;;
46721;SDS011;32455;43.430;23.136;2023-02-24T05:47:12;59.63;;;22.73;;
46721;SDS011;32455;43.430;23.136;2023-02-24T05:49:57;57.33;;;21.38;;
46721;SDS011;32455;43.430;23.136;2023-02-24T05:52:43;64.30;;;24.88;;
46721;SDS011;32455;43.430;23.136;2023-02-24T05:55:29;63.40;;;24.30;;
46721;SDS011;32455;43.430;23.136;2023-02-24T05:58:15;70.20;;;24.75;;
46721;SDS011;32455;43.430;23.136;2023-02-24T06:00:59;78.70;;;24.70;;
46721;SDS011;32455;43.430;23.136;2023-02-24T06:03:49;62.40;;;23.13;;
46721;SDS011;32455;43.430;23.136;2023-02-24T06:06:38;66.40;;;23.73;;
46721;SDS011;32455;43.430;23.136;2023-02-24T06:09:25;69.55;;;22.83;;
46721;SDS011;32455;43.430;23.136;2023-02-24T06:12:10;63.20;;;24.52;;
46721;SDS011;32455;43.430;23.136;2023-02-24T06:14:58;60.70;;;24.05;;
46721;SDS011;32455;43.430;23.136;2023-02-24T06:17:43;62.67;;;22.90;;
46721;SDS011;32455;43.430;23.136;2023-02-24T06:20:29;62.47;;;22.73;;
46721;SDS011;32455;43.430;23.136;2023-02-24T06:23:17;67.25;;;23.80;;
46721;SDS011;32455;43.430;23.136;2023-02-24T06:26:03;62.38;;;22.70;;
46721;SDS011;32455;43.430;23.136;2023-02-24T06:28:51;58.40;;;22.90;;
46721;SDS011;32455;43.430;23.136;2023-02-24T06:31:37;55.67;;;25.23;;
46721;SDS011;32455;43.430;23.136;2023-02-24T06:34:23;59.47;;;24.00;;
46721;SDS011;32455;43.430;23.136;2023-02-24T06:37:10;49.90;;;23.42;;
46721;SDS011;32455;43.430;23.136;2023-02-24T06:39:57;62.03;;;24.63;;
46721;SDS011;32455;43.430;23.136;2023-02-24T06:42:46;67.47;;;23.73;;
46721;SDS011;32455;43.430;23.136;2023-02-24T06:45:32;57.67;;;22.70;;
46721;SDS011;32455;43.430;23.136;2023-02-24T06:48:18;57.75;;;22.52;;
46721;SDS011;32455;43.430;23.136;2023-02-24T06:51:04;65.43;;;23.40;;
46721;SDS011;32455;43.430;23.136;2023-02-24T06:54:01;53.63;;;22.10;;
46721;SDS011;32455;43.430;23.136;2023-02-24T06:56:47;47.20;;;21.88;;
46721;SDS011;32455;43.430;23.136;2023-02-24T06:59:33;60.00;;;22.85;;
46721;SDS011;32455;43.430;23.136;2023-02-24T07:02:18;50.17;;;22.27;;
46721;SDS011;32455;43.430;23.136;2023-02-24T07:05:04;46.28;;;20.80;;
46721;SDS011;32455;43.430;23.136;2023-02-24T07:07:49;52.65;;;21.83;;
46721;SDS011;32455;43.430;23.136;2023-02-24T07:10:36;42.08;;;21.60;;
46721;SDS011;32455;43.430;23.136;2023-02-24T07:13:23;45.20;;;18.88;;
46721;SDS011;32455;43.430;23.136;2023-02-24T07:16:10;48.35;;;20.08;;
46721;SDS011;32455;43.430;23.136;2023-02-24T07:18:58;39.10;;;18.95;;
46721;SDS011;32455;43.430;23.136;2023-02-24T07:21:46;54.38;;;27.13;;
46721;SDS011;32455;43.430;23.136;2023-02-24T07:24:35;49.40;;;21.20;;
46721;SDS011;32455;43.430;23.136;2023-02-24T07:27:22;40.78;;;20.90;;
46721;SDS011;32455;43.430;23.136;2023-02-24T07:30:08;40.60;;;21.67;;
46721;SDS011;32455;43.430;23.136;2023-02-24T07:32:54;51.75;;;21.85;;
46721;SDS011;32455;43.430;23.136;2023-02-24T07:35:40;39.90;;;20.08;;
46721;SDS011;32455;43.430;23.136;2023-02-24T07:38:26;34.97;;;20.88;;
46721;SDS011;32455;43.430;23.136;2023-02-24T07:41:12;34.47;;;19.52;;
46721;SDS011;32455;43.430;23.136;2023-02-24T07:44:03;31.27;;;18.20;;
46721;SDS011;32455;43.430;23.136;2023-02-24T07:46:53;33.97;;;18.17;;
46721;SDS011;32455;43.430;23.136;2023-02-24T07:49:38;34.20;;;17.30;;
46721;SDS011;32455;43.430;23.136;2023-02-24T07:52:24;25.33;;;17.17;;
46721;SDS011;32455;43.430;23.136;2023-02-24T07:55:09;30.08;;;18.10;;
46721;SDS011;32455;43.430;23.136;2023-02-24T07:57:55;30.38;;;17.25;;
46721;SDS011;32455;43.430;23.136;2023-02-24T08:00:41;29.27;;;17.55;;
46721;SDS011;32455;43.430;23.136;2023-02-24T08:03:57;38.25;;;21.13;;
46721;SDS011;32455;43.430;23.136;2023-02-24T08:06:46;27.63;;;18.23;;
46721;SDS011;32455;43.430;23.136;2023-02-24T08:09:34;34.50;;;19.25;;
46721;SDS011;32455;43.430;23.136;2023-02-24T08:12:28;30.13;;;18.08;;
46721;SDS011;32455;43.430;23.136;2023-02-24T08:15:14;34.33;;;19.95;;
46721;SDS011;32455;43.430;23.136;2023-02-24T08:18:07;35.20;;;22.13;;
46721;SDS011;32455;43.430;23.136;2023-02-24T08:20:53;36.83;;;23.23;;
46721;SDS011;32455;43.430;23.136;2023-02-24T08:23:48;29.90;;;19.02;;
46721;SDS011;32455;43.430;23.136;2023-02-24T08:26:33;29.98;;;18.90;;
46721;SDS011;32455;43.430;23.136;2023-02-24T08:29:30;30.52;;;17.17;;
46721;SDS011;32455;43.430;23.136;2023-02-24T08:32:40;25.70;;;17.23;;
46721;SDS011;32455;43.430;23.136;2023-02-24T08:35:28;26.35;;;16.65;;
46721;SDS011;32455;43.430;23.136;2023-02-24T08:38:18;26.55;;;17.00;;
46721;SDS011;32455;43.430;23.136;2023-02-24T08:41:15;26.52;;;16.30;;
46721;SDS011;32455;43.430;23.136;2023-02-24T08:44:04;23.52;;;16.73;;
46721;SDS011;32455;43.430;23.136;2023-02-24T08:46:49;25.50;;;16.90;;
46721;SDS011;32455;43.430;23.136;2023-02-24T08:49:36;27.13;;;15.98;;
46721;SDS011;32455;43.430;23.136;2023-02-24T08:52:22;27.08;;;16.50;;
46721;SDS011;32455;43.430;23.136;2023-02-24T08:55:08;27.08;;;17.08;;
46721;SDS011;32455;43.430;23.136;2023-02-24T08:57:55;23.80;;;16.08;;
46721;SDS011;32455;43.430;23.136;2023-02-24T09:00:45;21.73;;;15.65;;
46721;SDS011;32455;43.430;23.136;2023-02-24T09:03:34;27.15;;;16.13;;
46721;SDS011;32455;43.430;23.136;2023-02-24T09:06:21;26.67;;;16.05;;
46721;SDS011;32455;43.430;23.136;2023-02-24T09:09:10;25.50;;;16.23;;
46721;SDS011;32455;43.430;23.136;2023-02-24T09:12:04;29.23;;;18.10;;
46721;SDS011;32455;43.430;23.136;2023-02-24T09:14:51;22.98;;;15.77;;
46721;SDS011;32455;43.430;23.136;2023-02-24T09:17:40;27.92;;;15.30;;
46721;SDS011;32455;43.430;23.136;2023-02-24T09:20:30;27.33;;;16.13;;
46721;SDS011;32455;43.430;23.136;2023-02-24T09:23:34;26.95;;;16.10;;
46721;SDS011;32455;43.430;23.136;2023-02-24T09:26:30;26.15;;;16.17;;
46721;SDS011;32455;43.430;23.136;2023-02-24T09:29:26;27.15;;;16.13;;
46721;SDS011;32455;43.430;23.136;2023-02-24T09:32:18;28.05;;;16.67;;
46721;SDS011;32455;43.430;23.136;2023-02-24T09:35:03;26.80;;;16.52;;
46721;SDS011;32455;43.430;23.136;2023-02-24T09:37:49;30.10;;;18.33;;
46721;SDS011;32455;43.430;23.136;2023-02-24T09:40:34;31.83;;;17.02;;
46721;SDS011;32455;43.430;23.136;2023-02-24T09:43:31;29.40;;;17.38;;
46721;SDS011;32455;43.430;23.136;2023-02-24T09:46:29;26.75;;;15.82;;
46721;SDS011;32455;43.430;23.136;2023-02-24T09:49:18;26.75;;;16.15;;
46721;SDS011;32455;43.430;23.136;2023-02-24T09:52:11;25.10;;;15.30;;
46721;SDS011;32455;43.430;23.136;2023-02-24T09:55:02;23.80;;;15.13;;
46721;SDS011;32455;43.430;23.136;2023-02-24T09:58:19;25.08;;;15.63;;
46721;SDS011;32455;43.430;23.136;2023-02-24T10:01:35;24.35;;;15.50;;
46721;SDS011;32455;43.430;23.136;2023-02-24T10:04:29;25.98;;;14.73;;
46721;SDS011;32455;43.430;23.136;2023-02-24T10:07:19;27.35;;;15.07;;
46721;SDS011;32455;43.430;23.136;2023-02-24T10:10:24;26.23;;;14.40;;
46721;SDS011;32455;43.430;23.136;2023-02-24T10:13:18;27.48;;;15.65;;
46721;SDS011;32455;43.430;23.136;2023-02-24T10:16:15;22.75;;;15.82;;
46721;SDS011;32455;43.430;23.136;2023-02-24T10:19:23;28.05;;;15.27;;
46721;SDS011;32455;43.430;23.136;2023-02-24T10:25:52;26.65;;;16.05;;
46721;SDS011;32455;43.430;23.136;2023-02-24T10:28:49;28.42;;;15.70;;
46721;SDS011;32455;43.430;23.136;2023-02-24T10:31:46;31.33;;;16.85;;
46721;SDS011;32455;43.430;23.136;2023-02-24T10:34:41;25.52;;;15.77;;
46721;SDS011;32455;43.430;23.136;2023-02-24T10:37:28;30.65;;;16.40;;
46721;SDS011;32455;43.430;23.136;2023-02-24T10:40:14;26.02;;;16.40;;
46721;SDS011;32455;43.430;23.136;2023-02-24T10:43:10;28.23;;;16.02;;
46721;SDS011;32455;43.430;23.136;2023-02-24T10:46:01;25.30;;;15.90;;
46721;SDS011;32455;43.430;23.136;2023-02-24T10:48:54;29.27;;;16.80;;
46721;SDS011;32455;43.430;23.136;2023-02-24T10:51:49;27.50;;;16.35;;
46721;SDS011;32455;43.430;23.136;2023-02-24T10:54:37;26.55;;;15.45;;
46721;SDS011;32455;43.430;23.136;2023-02-24T10:57:44;27.05;;;15.98;;
46721;SDS011;32455;43.430;23.136;2023-02-24T11:00:39;26.42;;;15.88;;
46721;SDS011;32455;43.430;23.136;2023-02-24T11:03:52;25.15;;;16.15;;
46721;SDS011;32455;43.430;23.136;2023-02-24T11:06:45;26.73;;;15.60;;
46721;SDS011;32455;43.430;23.136;2023-02-24T11:09:39;29.77;;;16.20;;
46721;SDS011;32455;43.430;23.136;2023-02-24T11:12:36;26.92;;;16.45;;
46721;SDS011;32455;43.430;23.136;2023-02-24T11:15:50;27.33;;;15.48;;
46721;SDS011;32455;43.430;23.136;2023-02-24T11:19:13;25.00;;;14.52;;
46721;SDS011;32455;43.430;23.136;2023-02-24T11:21:59;25.00;;;14.95;;
46721;SDS011;32455;43.430;23.136;2023-02-24T11:24:46;25.33;;;14.90;;
46721;SDS011;32455;43.430;23.136;2023-02-24T11:27:32;25.70;;;15.40;;
46721;SDS011;32455;43.430;23.136;2023-02-24T11:36:31;30.35;;;14.57;;
46721;SDS011;32455;43.430;23.136;2023-02-24T11:48:34;24.77;;;15.48;;
46721;SDS011;32455;43.430;23.136;2023-02-24T11:51:32;24.02;;;15.38;;
46721;SDS011;32455;43.430;23.136;2023-02-24T11:54:20;28.02;;;14.70;;
46721;SDS011;32455;43.430;23.136;2023-02-24T11:57:11;24.58;;;14.88;;
46721;SDS011;32455;43.430;23.136;2023-02-24T12:06:32;24.80;;;14.90;;
46721;SDS011;32455;43.430;23.136;2023-02-24T12:09:25;23.73;;;14.50;;
46721;SDS011;32455;43.430;23.136;2023-02-24T12:12:20;27.53;;;13.90;;
46721;SDS011;32455;43.430;23.136;2023-02-24T12:15:12;24.88;;;14.40;;
46721;SDS011;32455;43.430;23.136;2023-02-24T12:18:10;24.88;;;14.88;;
46721;SDS011;32455;43.430;23.136;2023-02-24T12:21:05;23.60;;;14.38;;
46721;SDS011;32455;43.430;23.136;2023-02-24T12:23:51;27.55;;;13.68;;
46721;SDS011;32455;43.430;23.136;2023-02-24T12:33:22;24.40;;;13.75;;
46721;SDS011;32455;43.430;23.136;2023-02-24T12:35:53;25.23;;;14.75;;
46721;SDS011;32455;43.430;23.136;2023-02-24T12:42:45;24.55;;;14.38;;
46721;SDS011;32455;43.430;23.136;2023-02-24T12:54:33;26.58;;;14.63;;
46721;SDS011;32455;43.430;23.136;2023-02-24T12:57:38;26.58;;;14.13;;
46721;SDS011;32455;43.430;23.136;2023-02-24T13:15:51;26.55;;;13.25;;
46721;SDS011;32455;43.430;23.136;2023-02-24T13:18:39;22.85;;;13.75;;
46721;SDS011;32455;43.430;23.136;2023-02-24T13:21:24;20.13;;;12.82;;
46721;SDS011;32455;43.430;23.136;2023-02-24T13:24:19;21.30;;;13.77;;
46721;SDS011;32455;43.430;23.136;2023-02-24T13:29:59;29.60;;;14.40;;
46721;SDS011;32455;43.430;23.136;2023-02-24T13:33:35;23.40;;;14.07;;
46721;SDS011;32455;43.430;23.136;2023-02-24T13:39:05;23.23;;;13.77;;
46721;SDS011;32455;43.430;23.136;2023-02-24T13:42:17;25.58;;;14.43;;
46721;SDS011;32455;43.430;23.136;2023-02-24T13:54:19;23.52;;;13.75;;
46721;SDS011;32455;43.430;23.136;2023-02-24T14:04:05;21.67;;;14.77;;
46721;SDS011;32455;43.430;23.136;2023-02-24T14:07:02;24.23;;;13.65;;
46721;SDS011;32455;43.430;23.136;2023-02-24T14:09:57;22.55;;;13.98;;
46721;SDS011;32455;43.430;23.136;2023-02-24T14:12:46;21.77;;;13.13;;
46721;SDS011;32455;43.430;23.136;2023-02-24T14:15:33;22.05;;;14.60;;
46721;SDS011;32455;43.430;23.136;2023-02-24T14:18:24;21.67;;;14.35;;
46721;SDS011;32455;43.430;23.136;2023-02-24T14:21:16;23.80;;;14.60;;
46721;SDS011;32455;43.430;23.136;2023-02-24T14:24:11;26.75;;;15.20;;
46721;SDS011;32455;43.430;23.136;2023-02-24T14:26:57;22.58;;;14.73;;
46721;SDS011;32455;43.430;23.136;2023-02-24T14:29:45;21.90;;;13.63;;
46721;SDS011;32455;43.430;23.136;2023-02-24T14:32:30;23.52;;;14.55;;
46721;SDS011;32455;43.430;23.136;2023-02-24T14:35:18;22.08;;;13.40;;
46721;SDS011;32455;43.430;23.136;2023-02-24T14:38:26;24.85;;;15.15;;
46721;SDS011;32455;43.430;23.136;2023-02-24T14:41:21;25.40;;;14.15;;
46721;SDS011;32455;43.430;23.136;2023-02-24T14:44:26;28.80;;;13.55;;
46721;SDS011;32455;43.430;23.136;2023-02-24T14:47:16;23.00;;;13.15;;
46721;SDS011;32455;43.430;23.136;2023-02-24T14:50:02;18.48;;;12.27;;
46721;SDS011;32455;43.430;23.136;2023-02-24T14:53:05;19.15;;;13.88;;
46721;SDS011;32455;43.430;23.136;2023-02-24T14:55:56;23.48;;;14.02;;
46721;SDS011;32455;43.430;23.136;2023-02-24T14:58:50;23.00;;;14.05;;
46721;SDS011;32455;43.430;23.136;2023-02-24T15:01:45;24.40;;;14.45;;
46721;SDS011;32455;43.430;23.136;2023-02-24T15:04:34;22.65;;;13.38;;
46721;SDS011;32455;43.430;23.136;2023-02-24T15:07:26;24.75;;;15.07;;
46721;SDS011;32455;43.430;23.136;2023-02-24T15:10:22;23.58;;;14.10;;
46721;SDS011;32455;43.430;23.136;2023-02-24T15:13:14;22.15;;;14.02;;
46721;SDS011;32455;43.430;23.136;2023-02-24T15:16:24;25.20;;;14.00;;
46721;SDS011;32455;43.430;23.136;2023-02-24T15:22:31;23.15;;;14.00;;
46721;SDS011;32455;43.430;23.136;2023-02-24T15:25:24;20.92;;;13.82;;
46721;SDS011;32455;43.430;23.136;2023-02-24T15:28:26;19.75;;;13.10;;
46721;SDS011;32455;43.430;23.136;2023-02-24T15:31:16;21.35;;;13.20;;
46721;SDS011;32455;43.430;23.136;2023-02-24T15:34:03;24.80;;;15.05;;
46721;SDS011;32455;43.430;23.136;2023-02-24T15:36:50;26.05;;;14.60;;
46721;SDS011;32455;43.430;23.136;2023-02-24T15:39:43;27.52;;;14.30;;
46721;SDS011;32455;43.430;23.136;2023-02-24T15:42:31;22.88;;;13.52;;
46721;SDS011;32455;43.430;23.136;2023-02-24T15:48:20;36.50;;;18.08;;
46721;SDS011;32455;43.430;23.136;2023-02-24T15:51:08;32.72;;;15.48;;
46721;SDS011;32455;43.430;23.136;2023-02-24T15:57:15;22.35;;;13.73;;
46721;SDS011;32455;43.430;23.136;2023-02-24T16:00:02;22.88;;;13.70;;
46721;SDS011;32455;43.430;23.136;2023-02-24T16:02:53;23.13;;;13.75;;
46721;SDS011;32455;43.430;23.136;2023-02-24T16:05:38;23.42;;;13.52;;
46721;SDS011;32455;43.430;23.136;2023-02-24T16:08:23;22.27;;;12.95;;
46721;SDS011;32455;43.430;23.136;2023-02-24T16:11:09;20.73;;;12.80;;
46721;SDS011;32455;43.430;23.136;2023-02-24T16:13:56;19.83;;;13.20;;
46721;SDS011;32455;43.430;23.136;2023-02-24T16:16:43;22.23;;;13.63;;
46721;SDS011;32455;43.430;23.136;2023-02-24T16:19:28;25.10;;;15.13;;
46721;SDS011;32455;43.430;23.136;2023-02-24T16:22:13;112.68;;;45.78;;
46721;SDS011;32455;43.430;23.136;2023-02-24T16:24:58;74.63;;;31.38;;
46721;SDS011;32455;43.430;23.136;2023-02-24T16:27:44;139.88;;;61.22;;
46721;SDS011;32455;43.430;23.136;2023-02-24T16:30:29;96.07;;;43.97;;
46721;SDS011;32455;43.430;23.136;2023-02-24T16:33:15;62.97;;;29.02;;
46721;SDS011;32455;43.430;23.136;2023-02-24T16:36:02;34.78;;;20.65;;
46721;SDS011;32455;43.430;23.136;2023-02-24T16:38:47;70.30;;;37.75;;
46721;SDS011;32455;43.430;23.136;2023-02-24T16:41:34;34.85;;;21.02;;
46721;SDS011;32455;43.430;23.136;2023-02-24T16:44:20;46.97;;;29.25;;
46721;SDS011;32455;43.430;23.136;2023-02-24T16:47:06;35.63;;;21.20;;
46721;SDS011;32455;43.430;23.136;2023-02-24T16:49:57;23.77;;;13.27;;
46721;SDS011;32455;43.430;23.136;2023-02-24T16:52:44;19.25;;;13.15;;
46721;SDS011;32455;43.430;23.136;2023-02-24T16:55:29;22.52;;;13.25;;
46721;SDS011;32455;43.430;23.136;2023-02-24T16:58:15;22.00;;;12.57;;
46721;SDS011;32455;43.430;23.136;2023-02-24T17:01:02;28.88;;;18.25;;
46721;SDS011;32455;43.430;23.136;2023-02-24T17:03:50;25.17;;;16.40;;
46721;SDS011;32455;43.430;23.136;2023-02-24T17:06:37;27.92;;;16.02;;
46721;SDS011;32455;43.430;23.136;2023-02-24T17:09:22;24.98;;;16.80;;
46721;SDS011;32455;43.430;23.136;2023-02-24T17:12:09;24.55;;;15.30;;
46721;SDS011;32455;43.430;23.136;2023-02-24T17:14:57;28.83;;;16.52;;
46721;SDS011;32455;43.430;23.136;2023-02-24T17:17:43;28.27;;;17.58;;
46721;SDS011;32455;43.430;23.136;2023-02-24T17:20:28;20.40;;;13.20;;
46721;SDS011;32455;43.430;23.136;2023-02-24T17:23:13;22.88;;;13.82;;
46721;SDS011;32455;43.430;23.136;2023-02-24T17:25:59;25.67;;;15.52;;
46721;SDS011;32455;43.430;23.136;2023-02-24T17:28:46;31.25;;;18.58;;
46721;SDS011;32455;43.430;23.136;2023-02-24T17:31:32;24.10;;;15.00;;
46721;SDS011;32455;43.430;23.136;2023-02-24T17:34:18;25.25;;;14.98;;
46721;SDS011;32455;43.430;23.136;2023-02-24T17:37:05;27.33;;;16.88;;
46721;SDS011;32455;43.430;23.136;2023-02-24T17:39:50;37.83;;;20.05;;
46721;SDS011;32455;43.430;23.136;2023-02-24T17:42:35;37.28;;;20.85;;
46721;SDS011;32455;43.430;23.136;2023-02-24T17:45:21;38.80;;;21.92;;
46721;SDS011;32455;43.430;23.136;2023-02-24T17:48:07;33.05;;;17.98;;
46721;SDS011;32455;43.430;23.136;2023-02-24T17:50:53;26.80;;;16.42;;
46721;SDS011;32455;43.430;23.136;2023-02-24T17:53:39;28.70;;;18.58;;
46721;SDS011;32455;43.430;23.136;2023-02-24T17:56:25;26.33;;;17.77;;
46721;SDS011;32455;43.430;23.136;2023-02-24T17:59:11;24.67;;;15.65;;
46721;SDS011;32455;43.430;23.136;2023-02-24T18:01:56;34.05;;;16.60;;
46721;SDS011;32455;43.430;23.136;2023-02-24T18:04:43;29.52;;;18.40;;
46721;SDS011;32455;43.430;23.136;2023-02-24T18:07:28;28.85;;;16.75;;
46721;SDS011;32455;43.430;23.136;2023-02-24T18:10:13;37.95;;;20.75;;
46721;SDS011;32455;43.430;23.136;2023-02-24T18:12:58;77.25;;;33.20;;
46721;SDS011;32455;43.430;23.136;2023-02-24T18:15:44;33.47;;;16.42;;